Bay Islands (Utila), Honduras
Current Conditions -  °F | °C
As of 1:00 PM on Friday 21 Nov 2014 (Local Time) from MHLC Reporting Station
Broken Clouds Broken Clouds  
Wind Chill: 79°   Ceiling: 7000
Heat Index: 82°   Visibility: 6mi
Dew Point: 72°   Wind: 3mph
Humidity: 78%   Direction: 280°W
Pressure: 29.97"   Gusts: NA
Location:  16.1°N, 86.95°W
Report Text: MHLC 211900Z 28003KT 9999 SCT024TCU BKN070 26/22 Q1015 A2997NOSIG
Loading
Personal Weather Stations






























Interactive Weather Map New forecast layout! Learn more

10-Day Weather Forecast

Advertisements
Track Severe Weather on mobile